Time;durP1;ratioP1;P1;durP2;ratioP2;P2;SDS_P1;SDS_P2;PMS_P1;PMS_P2;Temp;Humidity;BMP_temperature;BMP_pressure;BME280_temperature;BME280_humidity;BME280_pressure;Samples;Min_cycle;Max_cycle;Signal;HPM_P1;HPM_P2
2023/03/16 00:02:00;;;;;;;;;;;19.60;31.00;;;;;;8333982;28;20259;-45
2023/03/16 00:06:01;;;;;;;;;;;19.70;31.00;;;;;;8334240;28;19921;-43
2023/03/16 00:10:02;;;;;;;;;;;19.60;31.00;;;;;;8334151;28;19921;-44
2023/03/16 00:14:03;;;;;;;;;;;19.60;31.00;;;;;;8333624;28;19939;-43
2023/03/16 00:18:03;;;;;;;;;;;19.60;31.00;;;;;;8333637;28;19924;-44
2023/03/16 00:22:04;;;;;;;;;;;19.50;31.00;;;;;;8333790;28;19917;-43
2023/03/16 00:26:07;;;;;;;;;;;19.50;31.00;;;;;;8332947;28;19921;-43
2023/03/16 00:30:08;;;;;;;;;;;19.50;31.00;;;;;;8315492;28;19921;-42
2023/03/16 00:34:11;;;;;;;;;;;19.50;31.00;;;;;;8333454;28;19917;-45
2023/03/16 00:38:12;;;;;;;;;;;19.50;31.00;;;;;;8332655;28;20239;-44
2023/03/16 00:42:13;;;;;;;;;;;19.50;31.00;;;;;;8333344;28;19924;-44
2023/03/16 00:46:15;;;;;;;;;;;19.40;31.00;;;;;;8332836;28;19921;-45
2023/03/16 00:50:15;;;;;;;;;;;19.40;31.00;;;;;;8332194;28;19925;-43
2023/03/16 00:54:16;;;;;;;;;;;19.40;31.00;;;;;;8333049;28;19920;-44
2023/03/16 00:58:17;;;;;;;;;;;19.40;31.00;;;;;;8332322;28;19928;-42
2023/03/16 01:02:22;;;;;;;;;;;19.40;31.00;;;;;;8332367;28;20267;-43
2023/03/16 01:06:22;;;;;;;;;;;19.30;31.00;;;;;;8332374;28;19920;-42
2023/03/16 01:10:23;;;;;;;;;;;19.30;31.00;;;;;;8331783;28;19932;-41
2023/03/16 01:14:24;;;;;;;;;;;19.30;31.10;;;;;;8332524;28;20073;-45
2023/03/16 01:18:25;;;;;;;;;;;19.30;31.10;;;;;;8331948;28;19967;-42
2023/03/16 01:22:25;;;;;;;;;;;19.30;31.00;;;;;;8331494;28;19913;-42
2023/03/16 01:26:26;;;;;;;;;;;19.30;31.00;;;;;;8331772;28;19939;-44
2023/03/16 01:30:27;;;;;;;;;;;19.30;31.00;;;;;;8331674;28;19968;-43
2023/03/16 01:34:27;;;;;;;;;;;19.20;31.00;;;;;;8331231;28;19917;-43
2023/03/16 01:38:28;;;;;;;;;;;19.20;31.00;;;;;;8331714;28;19921;-43
2023/03/16 01:42:28;;;;;;;;;;;19.20;31.00;;;;;;8330959;28;20003;-43
2023/03/16 01:46:29;;;;;;;;;;;19.20;31.00;;;;;;8330460;28;19917;-42
2023/03/16 01:50:30;;;;;;;;;;;19.20;31.10;;;;;;8330717;28;19921;-43
2023/03/16 01:54:32;;;;;;;;;;;19.20;31.00;;;;;;8330696;28;19924;-43
2023/03/16 01:58:34;;;;;;;;;;;19.20;31.10;;;;;;8330233;28;19944;-42
2023/03/16 02:02:35;;;;;;;;;;;19.10;31.10;;;;;;8315774;28;19956;-43
2023/03/16 02:06:35;;;;;;;;;;;19.10;31.10;;;;;;8309843;28;19920;-43
2023/03/16 02:10:36;;;;;;;;;;;19.10;31.10;;;;;;8330051;28;19925;-43
2023/03/16 02:14:37;;;;;;;;;;;19.10;31.00;;;;;;8330131;28;19913;-43
2023/03/16 02:18:37;;;;;;;;;;;19.10;31.00;;;;;;8330270;28;20047;-43
2023/03/16 02:22:41;;;;;;;;;;;19.00;31.00;;;;;;8329564;28;19913;-43
2023/03/16 02:26:56;;;;;;;;;;;19.00;31.00;;;;;;8329851;28;19921;-43
2023/03/16 02:30:56;;;;;;;;;;;19.00;31.00;;;;;;8329870;28;19928;-43
2023/03/16 02:34:57;;;;;;;;;;;19.00;31.00;;;;;;8329522;28;19917;-43
2023/03/16 02:38:58;;;;;;;;;;;19.00;31.10;;;;;;8329648;28;19917;-44
2023/03/16 02:43:03;;;;;;;;;;;18.90;31.10;;;;;;8329923;28;19960;-43
2023/03/16 02:47:08;;;;;;;;;;;19.00;31.10;;;;;;8329358;28;20306;-43
2023/03/16 02:51:10;;;;;;;;;;;18.90;31.10;;;;;;8329727;28;19921;-42
2023/03/16 02:55:10;;;;;;;;;;;18.90;31.00;;;;;;8329958;28;20024;-42
2023/03/16 02:59:11;;;;;;;;;;;18.90;31.00;;;;;;8329189;28;20437;-42
2023/03/16 03:03:12;;;;;;;;;;;18.90;31.00;;;;;;8329494;28;20067;-42
2023/03/16 03:07:13;;;;;;;;;;;18.90;31.00;;;;;;8329798;28;19913;-43
2023/03/16 03:11:14;;;;;;;;;;;18.90;31.10;;;;;;8328993;28;20382;-43
2023/03/16 03:15:15;;;;;;;;;;;18.80;31.00;;;;;;8311987;28;19913;-43
2023/03/16 03:19:16;;;;;;;;;;;18.90;31.00;;;;;;8329380;28;20003;-42
2023/03/16 03:23:16;;;;;;;;;;;18.80;31.00;;;;;;8328891;28;19925;-43
2023/03/16 03:27:17;;;;;;;;;;;18.80;31.10;;;;;;8333611;28;19917;-43
2023/03/16 03:31:19;;;;;;;;;;;18.80;31.10;;;;;;8335154;28;20362;-43
2023/03/16 03:35:20;;;;;;;;;;;18.80;31.10;;;;;;8346254;28;19971;-43
2023/03/16 03:39:21;;;;;;;;;;;18.80;31.00;;;;;;8338862;28;20050;-43
2023/03/16 03:43:21;;;;;;;;;;;18.80;31.00;;;;;;8335004;28;19917;-43
2023/03/16 03:47:21;;;;;;;;;;;18.80;31.00;;;;;;8334420;28;19928;-42
2023/03/16 03:51:22;;;;;;;;;;;18.80;31.00;;;;;;8334494;28;19925;-42
2023/03/16 03:55:22;;;;;;;;;;;18.70;31.00;;;;;;8334401;28;19914;-40
2023/03/16 03:59:23;;;;;;;;;;;18.70;31.00;;;;;;8334445;28;19943;-43
2023/03/16 04:03:23;;;;;;;;;;;18.70;31.00;;;;;;8334677;28;20023;-43
2023/03/16 04:07:24;;;;;;;;;;;18.70;31.10;;;;;;8333985;28;19918;-42
2023/03/16 04:11:24;;;;;;;;;;;18.70;31.10;;;;;;8333720;28;19925;-42
2023/03/16 04:15:25;;;;;;;;;;;18.60;31.00;;;;;;8334199;28;19965;-42
2023/03/16 04:19:25;;;;;;;;;;;18.70;31.10;;;;;;8333762;28;19928;-42
2023/03/16 04:23:26;;;;;;;;;;;18.60;31.10;;;;;;8333759;28;19924;-42
2023/03/16 04:27:26;;;;;;;;;;;18.60;31.00;;;;;;8333816;28;19967;-43
2023/03/16 04:31:27;;;;;;;;;;;18.70;31.10;;;;;;8333047;28;19936;-41
2023/03/16 04:35:27;;;;;;;;;;;18.60;31.00;;;;;;8333539;28;19922;-42
2023/03/16 04:39:28;;;;;;;;;;;18.70;31.10;;;;;;8332548;28;19924;-43
2023/03/16 04:43:29;;;;;;;;;;;18.70;31.10;;;;;;8332913;28;20004;-42
2023/03/16 04:47:29;;;;;;;;;;;18.60;31.00;;;;;;8333340;28;20298;-42
2023/03/16 04:51:30;;;;;;;;;;;18.60;31.00;;;;;;8333076;28;19951;-43
2023/03/16 04:55:30;;;;;;;;;;;18.60;31.00;;;;;;8332750;28;19917;-42
2023/03/16 04:59:31;;;;;;;;;;;18.60;31.00;;;;;;8332592;28;19917;-43
2023/03/16 05:03:31;;;;;;;;;;;18.60;31.00;;;;;;8332548;28;19921;-42
2023/03/16 05:07:32;;;;;;;;;;;18.60;31.00;;;;;;8310363;28;19913;-42
2023/03/16 05:11:32;;;;;;;;;;;18.60;31.10;;;;;;8332254;28;19943;-44
2023/03/16 05:15:32;;;;;;;;;;;18.70;31.10;;;;;;8332591;28;20395;-43
2023/03/16 05:19:33;;;;;;;;;;;18.80;30.90;;;;;;8331755;28;19913;-44
2023/03/16 05:23:34;;;;;;;;;;;19.00;30.90;;;;;;8332056;28;19917;-42
2023/03/16 05:27:34;;;;;;;;;;;19.10;30.80;;;;;;8331975;28;19917;-45
2023/03/16 05:31:36;;;;;;;;;;;19.20;30.80;;;;;;8331187;28;19925;-43
2023/03/16 05:35:37;;;;;;;;;;;19.30;30.80;;;;;;8331864;28;19917;-42
2023/03/16 05:39:37;;;;;;;;;;;19.30;30.70;;;;;;8331313;28;19918;-42
2023/03/16 05:43:38;;;;;;;;;;;19.40;30.70;;;;;;8330825;28;20290;-43
2023/03/16 05:47:38;;;;;;;;;;;19.50;30.70;;;;;;8331416;28;19913;-44
2023/03/16 05:51:38;;;;;;;;;;;19.50;30.60;;;;;;8331358;28;19925;-43
2023/03/16 05:55:40;;;;;;;;;;;19.60;30.60;;;;;;8330419;28;19994;-43
2023/03/16 05:59:40;;;;;;;;;;;19.60;30.60;;;;;;8330721;28;19924;-42
2023/03/16 06:03:41;;;;;;;;;;;19.60;30.60;;;;;;8330953;28;19972;-42
2023/03/16 06:07:41;;;;;;;;;;;19.70;30.70;;;;;;8330507;28;19967;-42
2023/03/16 06:11:42;;;;;;;;;;;19.70;30.60;;;;;;8330806;28;19928;-42
2023/03/16 06:15:43;;;;;;;;;;;19.70;30.70;;;;;;8330380;28;20029;-42
2023/03/16 06:19:43;;;;;;;;;;;19.70;30.60;;;;;;8329948;28;19917;-43
2023/03/16 06:23:44;;;;;;;;;;;19.70;30.60;;;;;;8330289;28;20509;-43
2023/03/16 06:27:44;;;;;;;;;;;19.70;30.60;;;;;;8330405;28;19975;-42
2023/03/16 06:31:45;;;;;;;;;;;19.70;30.70;;;;;;8329424;28;19972;-42
2023/03/16 06:35:47;;;;;;;;;;;19.70;30.70;;;;;;8329928;28;19917;-43
2023/03/16 06:39:47;;;;;;;;;;;19.80;30.50;;;;;;8330229;28;20283;-43
2023/03/16 06:43:47;;;;;;;;;;;19.80;30.40;;;;;;8329529;28;19917;-42
2023/03/16 06:47:48;;;;;;;;;;;19.80;30.30;;;;;;8330229;28;19944;-43
2023/03/16 06:51:48;;;;;;;;;;;19.80;30.40;;;;;;8330051;28;20378;-43
2023/03/16 06:55:50;;;;;;;;;;;19.80;30.40;;;;;;8329332;28;20309;-43
2023/03/16 06:59:50;;;;;;;;;;;19.80;30.40;;;;;;8330521;28;19917;-43
2023/03/16 07:03:51;;;;;;;;;;;19.80;30.50;;;;;;8336197;28;19928;-43
2023/03/16 07:07:51;;;;;;;;;;;19.80;30.50;;;;;;8335544;28;19921;-43
2023/03/16 07:11:52;;;;;;;;;;;19.90;30.60;;;;;;8336114;28;19925;-43
2023/03/16 07:15:52;;;;;;;;;;;19.90;30.60;;;;;;8335914;28;20340;-42
2023/03/16 07:19:52;;;;;;;;;;;19.90;30.60;;;;;;8334908;28;20000;-45
2023/03/16 07:23:54;;;;;;;;;;;19.90;30.60;;;;;;8317698;28;20323;-43
2023/03/16 07:27:55;;;;;;;;;;;19.90;30.50;;;;;;8335665;28;19921;-44
2023/03/16 07:31:55;;;;;;;;;;;19.90;30.50;;;;;;8334990;28;20371;-44
2023/03/16 07:35:55;;;;;;;;;;;20.00;30.50;;;;;;8335227;28;19926;-44
2023/03/16 07:39:56;;;;;;;;;;;20.10;30.50;;;;;;8334914;28;20392;-44
2023/03/16 07:43:57;;;;;;;;;;;20.00;30.40;;;;;;8334308;28;19917;-44
2023/03/16 07:47:57;;;;;;;;;;;20.10;30.40;;;;;;8334442;28;19924;-44
2023/03/16 07:51:58;;;;;;;;;;;20.10;30.40;;;;;;8334801;28;20063;-43
2023/03/16 07:55:58;;;;;;;;;;;20.00;30.40;;;;;;8334008;28;20012;-43
2023/03/16 07:59:59;;;;;;;;;;;20.00;30.40;;;;;;8334376;28;20327;-44
2023/03/16 08:04:00;;;;;;;;;;;20.00;30.60;;;;;;8319228;28;19921;-44
2023/03/16 08:08:00;;;;;;;;;;;19.90;30.50;;;;;;8333628;28;19917;-44
2023/03/16 08:12:02;;;;;;;;;;;19.90;30.50;;;;;;8333229;28;19925;-45
2023/03/16 08:16:04;;;;;;;;;;;19.90;30.50;;;;;;8333648;28;19921;-45
2023/03/16 08:20:08;;;;;;;;;;;19.80;30.50;;;;;;8332715;28;19927;-43
2023/03/16 08:24:09;;;;;;;;;;;19.80;30.50;;;;;;8333774;28;19921;-44
2023/03/16 08:28:11;;;;;;;;;;;19.80;30.60;;;;;;8333776;28;19924;-44
2023/03/16 08:32:11;;;;;;;;;;;19.80;30.60;;;;;;8333081;28;19921;-44
2023/03/16 08:36:14;;;;;;;;;;;19.80;30.60;;;;;;8333320;28;19963;-44
2023/03/16 08:40:17;;;;;;;;;;;19.80;30.60;;;;;;8333149;28;19917;-44
2023/03/16 08:44:18;;;;;;;;;;;19.70;30.60;;;;;;8332397;28;19924;-44
2023/03/16 08:48:19;;;;;;;;;;;19.80;30.60;;;;;;8333141;28;19926;-43
2023/03/16 08:52:20;;;;;;;;;;;19.70;30.60;;;;;;8332868;28;19921;-44
2023/03/16 08:56:21;;;;;;;;;;;19.70;30.60;;;;;;8331944;28;20012;-45
2023/03/16 09:00:21;;;;;;;;;;;19.70;30.60;;;;;;8332237;28;19956;-45
2023/03/16 09:04:22;;;;;;;;;;;19.70;30.60;;;;;;8332170;28;19959;-45
2023/03/16 09:08:23;;;;;;;;;;;19.70;30.70;;;;;;8331574;28;19918;-45
2023/03/16 09:12:23;;;;;;;;;;;19.70;30.60;;;;;;8332387;28;20008;-44
2023/03/16 09:16:24;;;;;;;;;;;19.70;30.60;;;;;;8331434;28;20397;-43
2023/03/16 09:20:26;;;;;;;;;;;19.70;30.60;;;;;;8331707;28;19933;-44
2023/03/16 09:24:26;;;;;;;;;;;19.70;30.60;;;;;;8331297;28;19943;-44
2023/03/16 09:28:27;;;;;;;;;;;19.70;30.60;;;;;;8330987;28;20011;-45
2023/03/16 09:32:29;;;;;;;;;;;19.70;30.60;;;;;;8331852;28;20298;-47
2023/03/16 09:36:29;;;;;;;;;;;19.70;30.60;;;;;;8331531;28;19928;-45
2023/03/16 09:40:30;;;;;;;;;;;19.70;30.60;;;;;;8330574;28;19917;-46
2023/03/16 09:44:36;;;;;;;;;;;19.70;30.70;;;;;;8330880;28;20374;-44
2023/03/16 09:48:38;;;;;;;;;;;19.70;30.70;;;;;;8330736;28;19956;-45
2023/03/16 09:52:45;;;;;;;;;;;19.70;30.70;;;;;;8330403;28;19932;-44
2023/03/16 09:56:48;;;;;;;;;;;19.70;30.70;;;;;;8330596;28;19921;-44
2023/03/16 10:01:04;;;;;;;;;;;19.70;30.70;;;;;;8330278;28;19917;-45
2023/03/16 10:05:08;;;;;;;;;;;19.60;30.60;;;;;;8329563;28;20000;-45
2023/03/16 10:09:11;;;;;;;;;;;19.60;30.60;;;;;;8330298;28;19925;-45
2023/03/16 10:13:27;;;;;;;;;;;19.60;30.60;;;;;;8330401;28;19913;-44
2023/03/16 10:17:36;;;;;;;;;;;19.60;30.60;;;;;;8330731;28;19917;-45
2023/03/16 10:21:38;;;;;;;;;;;19.70;31.20;;;;;;8330408;28;19925;-45
2023/03/16 10:25:39;;;;;;;;;;;19.60;30.60;;;;;;8329663;28;19921;-45
2023/03/16 10:29:40;;;;;;;;;;;19.60;30.60;;;;;;8330035;28;20461;-45
2023/03/16 10:33:40;;;;;;;;;;;19.60;30.70;;;;;;8329993;28;20366;-45
2023/03/16 10:37:41;;;;;;;;;;;19.60;30.70;;;;;;8329009;28;19924;-44
2023/03/16 10:41:52;;;;;;;;;;;19.60;30.60;;;;;;8329908;28;20294;-44
2023/03/16 10:45:58;;;;;;;;;;;19.60;30.70;;;;;;8312185;28;20012;-44
2023/03/16 10:50:10;;;;;;;;;;;19.60;30.70;;;;;;8329295;28;20344;-44
2023/03/16 10:54:27;;;;;;;;;;;19.60;30.80;;;;;;8329856;28;19924;-45
2023/03/16 10:58:32;;;;;;;;;;;19.60;30.70;;;;;;8329398;28;20180;-43
2023/03/16 11:02:33;;;;;;;;;;;19.60;30.70;;;;;;8329807;28;20024;-45
2023/03/16 11:06:33;;;;;;;;;;;19.60;30.70;;;;;;8321048;28;19917;-44
2023/03/16 11:10:38;;;;;;;;;;;19.60;30.70;;;;;;8329040;28;19959;-45
2023/03/16 11:14:42;;;;;;;;;;;19.60;30.80;;;;;;8329741;28;19917;-44
2023/03/16 11:18:44;;;;;;;;;;;19.60;30.70;;;;;;8329710;28;20323;-45
2023/03/16 11:22:47;;;;;;;;;;;19.60;30.70;;;;;;8328920;28;19929;-44
2023/03/16 11:26:53;;;;;;;;;;;19.70;30.70;;;;;;8329456;28;19917;-44
2023/03/16 11:31:12;;;;;;;;;;;19.70;30.70;;;;;;8329212;28;19921;-45
2023/03/16 11:35:18;;;;;;;;;;;19.70;30.70;;;;;;8328639;28;19917;-44
2023/03/16 11:39:39;;;;;;;;;;;19.70;30.70;;;;;;8329317;28;19976;-44
2023/03/16 11:43:51;;;;;;;;;;;19.70;30.80;;;;;;8328738;28;19924;-45
2023/03/16 11:47:52;;;;;;;;;;;19.70;30.80;;;;;;8332238;28;19921;-45
2023/03/16 11:51:58;;;;;;;;;;;19.70;30.80;;;;;;8335142;28;19925;-46
2023/03/16 11:56:22;;;;;;;;;;;19.70;30.80;;;;;;8333885;28;19918;-45
2023/03/16 12:00:28;;;;;;;;;;;19.70;30.80;;;;;;8334974;28;19913;-46
2023/03/16 12:04:47;;;;;;;;;;;19.70;30.80;;;;;;8334194;28;19948;-46
2023/03/16 12:08:58;;;;;;;;;;;19.70;30.70;;;;;;8334039;28;19920;-45
2023/03/16 12:12:59;;;;;;;;;;;19.70;30.70;;;;;;8333891;28;20151;-46
2023/03/16 12:17:03;;;;;;;;;;;19.70;30.70;;;;;;8333398;28;19917;-45
2023/03/16 12:21:06;;;;;;;;;;;19.70;30.70;;;;;;8333630;28;19955;-45
2023/03/16 12:25:18;;;;;;;;;;;19.70;30.70;;;;;;8333501;28;19917;-45
2023/03/16 12:29:34;;;;;;;;;;;19.80;30.70;;;;;;8333029;28;19921;-45
2023/03/16 12:33:54;;;;;;;;;;;19.80;30.70;;;;;;8300900;28;20001;-45
2023/03/16 12:37:58;;;;;;;;;;;19.80;30.70;;;;;;8329176;28;19917;-47
2023/03/16 12:42:14;;;;;;;;;;;19.80;30.70;;;;;;8333167;28;19956;-46
2023/03/16 12:46:18;;;;;;;;;;;19.80;30.80;;;;;;8333021;28;20405;-45
2023/03/16 12:50:19;;;;;;;;;;;19.80;30.80;;;;;;8332408;28;19990;-45
2023/03/16 12:54:21;;;;;;;;;;;19.80;30.80;;;;;;8332417;28;20003;-45
2023/03/16 12:58:22;;;;;;;;;;;19.80;30.70;;;;;;8331892;28;20393;-45
2023/03/16 13:02:29;;;;;;;;;;;19.80;30.70;;;;;;8332160;28;19932;-45
2023/03/16 13:06:32;;;;;;;;;;;19.80;30.70;;;;;;8332369;28;19924;-46
2023/03/16 13:10:32;;;;;;;;;;;19.80;30.70;;;;;;8331754;28;19952;-45
2023/03/16 13:14:40;;;;;;;;;;;19.80;30.80;;;;;;8332415;28;19913;-46
2023/03/16 13:18:43;;;;;;;;;;;19.80;30.70;;;;;;8332232;28;20011;-46
2023/03/16 13:22:49;;;;;;;;;;;19.80;30.80;;;;;;8330949;28;21274;-45
2023/03/16 13:26:57;;;;;;;;;;;19.80;30.80;;;;;;8331665;28;20012;-47
2023/03/16 13:30:58;;;;;;;;;;;19.80;30.80;;;;;;8331678;28;20374;-49
2023/03/16 13:34:59;;;;;;;;;;;19.80;30.80;;;;;;8331039;28;19975;-46
2023/03/16 13:39:15;;;;;;;;;;;19.80;30.70;;;;;;8331784;28;19917;-45
2023/03/16 13:43:16;;;;;;;;;;;19.80;30.70;;;;;;8331510;28;19917;-44
2023/03/16 13:47:18;;;;;;;;;;;19.80;30.70;;;;;;8330586;28;19971;-45
2023/03/16 13:51:21;;;;;;;;;;;19.80;30.70;;;;;;8330884;28;19925;-46
2023/03/16 13:55:25;;;;;;;;;;;19.80;30.70;;;;;;8330838;28;19924;-45
2023/03/16 13:59:25;;;;;;;;;;;19.80;30.70;;;;;;8330505;28;20003;-46
2023/03/16 14:03:34;;;;;;;;;;;19.80;30.70;;;;;;8330830;28;19921;-46
2023/03/16 14:07:36;;;;;;;;;;;19.80;30.80;;;;;;8330154;28;19947;-46
2023/03/16 14:11:37;;;;;;;;;;;19.80;30.70;;;;;;8326976;28;19929;-46
2023/03/16 14:15:39;;;;;;;;;;;19.80;30.70;;;;;;8330561;28;19913;-46
2023/03/16 14:19:42;;;;;;;;;;;19.80;30.70;;;;;;8330082;28;19917;-47
2023/03/16 14:23:44;;;;;;;;;;;19.80;30.70;;;;;;8330081;28;19917;-46
2023/03/16 14:27:45;;;;;;;;;;;19.80;30.70;;;;;;8330206;28;19970;-46
2023/03/16 14:31:47;;;;;;;;;;;19.80;30.70;;;;;;8329504;28;20948;-46
2023/03/16 14:35:52;;;;;;;;;;;19.80;30.70;;;;;;8330332;28;20016;-46
2023/03/16 14:39:59;;;;;;;;;;;19.80;30.70;;;;;;8333038;28;19917;-46
2023/03/16 14:44:01;;;;;;;;;;;19.80;30.70;;;;;;8329283;28;19941;-49
2023/03/16 14:48:04;;;;;;;;;;;19.80;30.70;;;;;;8329798;28;19917;-46
2023/03/16 14:52:07;;;;;;;;;;;19.80;30.80;;;;;;8329860;28;19925;-44
2023/03/16 14:56:12;;;;;;;;;;;19.80;30.80;;;;;;8329359;28;19917;-46
2023/03/16 15:00:14;;;;;;;;;;;19.80;30.80;;;;;;8330127;28;19983;-47
2023/03/16 15:04:18;;;;;;;;;;;19.80;30.80;;;;;;8329534;28;19960;-45
2023/03/16 15:08:26;;;;;;;;;;;19.80;30.60;;;;;;8329058;28;20016;-46
2023/03/16 15:12:26;;;;;;;;;;;19.80;30.70;;;;;;8329290;28;19929;-45
2023/03/16 15:16:26;;;;;;;;;;;19.80;30.70;;;;;;8328814;28;19936;-43
2023/03/16 15:20:34;;;;;;;;;;;19.80;30.70;;;;;;8326917;28;19913;-41
2023/03/16 15:24:34;;;;;;;;;;;19.80;30.70;;;;;;8331277;28;19939;-45
2023/03/16 15:28:34;;;;;;;;;;;19.80;30.70;;;;;;8332828;28;19917;-45
2023/03/16 15:32:35;;;;;;;;;;;19.80;30.70;;;;;;8333303;28;19933;-46
2023/03/16 15:36:36;;;;;;;;;;;19.80;30.80;;;;;;8332586;28;19925;-46
2023/03/16 15:40:38;;;;;;;;;;;19.80;30.80;;;;;;8343717;28;20361;-45
2023/03/16 15:44:38;;;;;;;;;;;19.80;30.80;;;;;;8332775;28;19918;-46
2023/03/16 15:48:39;;;;;;;;;;;19.80;30.80;;;;;;8314774;28;19932;-45
2023/03/16 15:52:41;;;;;;;;;;;19.80;30.70;;;;;;8337644;28;19925;-45
2023/03/16 15:56:44;;;;;;;;;;;19.80;30.80;;;;;;8331582;28;20386;-45
2023/03/16 16:00:47;;;;;;;;;;;19.70;30.70;;;;;;8331795;28;19917;-46
2023/03/16 16:04:47;;;;;;;;;;;19.80;30.80;;;;;;8331768;28;20002;-45
2023/03/16 16:08:47;;;;;;;;;;;19.70;30.80;;;;;;8331858;28;19952;-45
2023/03/16 16:12:53;;;;;;;;;;;19.80;30.90;;;;;;8331108;28;20358;-45
2023/03/16 16:16:54;;;;;;;;;;;19.90;31.00;;;;;;8322437;28;19924;-45
2023/03/16 16:20:55;;;;;;;;;;;19.90;30.80;;;;;;8320666;28;19917;-46
2023/03/16 16:24:55;;;;;;;;;;;20.00;30.70;;;;;;8330871;28;20379;-45
2023/03/16 16:28:59;;;;;;;;;;;20.10;30.80;;;;;;8328450;28;19917;-45
2023/03/16 16:33:00;;;;;;;;;;;20.20;30.70;;;;;;8320604;28;19932;-46
2023/03/16 16:37:01;;;;;;;;;;;20.20;30.60;;;;;;8331758;28;19921;-46
2023/03/16 16:41:05;;;;;;;;;;;20.30;30.60;;;;;;8314888;28;19977;-46
2023/03/16 16:45:13;;;;;;;;;;;20.40;30.60;;;;;;8332586;28;19980;-46
2023/03/16 16:49:16;;;;;;;;;;;20.40;30.50;;;;;;8332871;28;20466;-45
2023/03/16 16:53:20;;;;;;;;;;;20.50;30.50;;;;;;8332577;28;19925;-45
2023/03/16 16:57:20;;;;;;;;;;;20.50;30.60;;;;;;8332793;28;20018;-45
2023/03/16 17:01:25;;;;;;;;;;;20.50;30.60;;;;;;8332492;28;19975;-44
2023/03/16 17:05:27;;;;;;;;;;;20.60;30.50;;;;;;8332022;28;19953;-45
2023/03/16 17:09:28;;;;;;;;;;;20.60;30.40;;;;;;8331263;28;20378;-45
2023/03/16 17:13:48;;;;;;;;;;;20.60;30.40;;;;;;8332120;28;19928;-45
2023/03/16 17:17:49;;;;;;;;;;;20.70;30.50;;;;;;8332293;28;19949;-45
2023/03/16 17:21:50;;;;;;;;;;;20.60;30.50;;;;;;8331442;28;19914;-46
2023/03/16 17:25:51;;;;;;;;;;;20.60;30.50;;;;;;8331499;28;19940;-45
2023/03/16 17:29:52;;;;;;;;;;;20.70;30.60;;;;;;8331964;28;19925;-44
2023/03/16 17:33:53;;;;;;;;;;;20.70;30.60;;;;;;8331513;28;20008;-46
2023/03/16 17:37:53;;;;;;;;;;;20.70;30.50;;;;;;8330740;28;20397;-45
2023/03/16 17:41:58;;;;;;;;;;;20.70;30.60;;;;;;8330819;28;20044;-46
2023/03/16 17:46:00;;;;;;;;;;;20.60;30.50;;;;;;8330994;28;19940;-45
2023/03/16 17:50:01;;;;;;;;;;;20.70;30.60;;;;;;8330370;28;20003;-46
2023/03/16 17:54:03;;;;;;;;;;;20.70;30.60;;;;;;8331118;28;19917;-46
2023/03/16 17:58:04;;;;;;;;;;;20.70;30.60;;;;;;8330771;28;19913;-45
2023/03/16 18:02:20;;;;;;;;;;;20.70;30.60;;;;;;8330207;28;19982;-47
2023/03/16 18:06:24;;;;;;;;;;;20.70;30.60;;;;;;8331025;28;19913;-46
2023/03/16 18:10:26;;;;;;;;;;;20.70;30.60;;;;;;8330454;28;19929;-47
2023/03/16 18:14:35;;;;;;;;;;;20.70;30.60;;;;;;8330232;28;19921;-46
2023/03/16 18:18:36;;;;;;;;;;;20.60;30.60;;;;;;8330476;28;20378;-46
2023/03/16 18:22:36;;;;;;;;;;;20.70;30.60;;;;;;8329758;28;19928;-46
2023/03/16 18:26:38;;;;;;;;;;;20.60;30.60;;;;;;8330377;28;19913;-46
2023/03/16 18:30:40;;;;;;;;;;;20.60;30.60;;;;;;8330088;28;20050;-47
2023/03/16 18:34:41;;;;;;;;;;;20.60;30.60;;;;;;8329439;28;19921;-46
2023/03/16 18:38:42;;;;;;;;;;;20.60;30.60;;;;;;8330212;28;19921;-46
2023/03/16 18:42:43;;;;;;;;;;;20.60;30.60;;;;;;8329891;28;19925;-47
2023/03/16 18:46:45;;;;;;;;;;;20.60;30.60;;;;;;8329675;28;19913;-46
2023/03/16 18:50:45;;;;;;;;;;;20.60;30.70;;;;;;8329799;28;19933;-47
2023/03/16 18:54:47;;;;;;;;;;;20.60;30.60;;;;;;8329433;28;20392;-45
2023/03/16 18:58:48;;;;;;;;;;;20.60;30.60;;;;;;8334588;28;20340;-46
2023/03/16 19:02:52;;;;;;;;;;;20.60;30.70;;;;;;8336245;28;19967;-44
2023/03/16 19:06:54;;;;;;;;;;;20.60;30.70;;;;;;8336231;28;19917;-45
2023/03/16 19:10:56;;;;;;;;;;;20.60;30.70;;;;;;8335323;28;19975;-46
2023/03/16 19:14:57;;;;;;;;;;;20.60;30.70;;;;;;8335743;28;19948;-45
2023/03/16 19:18:57;;;;;;;;;;;20.60;30.70;;;;;;8335718;28;19975;-46
2023/03/16 19:23:02;;;;;;;;;;;20.60;30.70;;;;;;8335104;28;19923;-47
2023/03/16 19:27:03;;;;;;;;;;;20.60;30.70;;;;;;8317775;28;20286;-45
2023/03/16 19:31:06;;;;;;;;;;;20.60;30.70;;;;;;8335397;28;19926;-46
2023/03/16 19:35:13;;;;;;;;;;;20.60;30.70;;;;;;8334548;28;19925;-45
2023/03/16 19:39:14;;;;;;;;;;;20.60;30.70;;;;;;8335236;28;19917;-45
2023/03/16 19:43:17;;;;;;;;;;;20.60;30.70;;;;;;8334986;28;19925;-45
2023/03/16 19:47:26;;;;;;;;;;;20.60;30.70;;;;;;8334246;28;19913;-46
2023/03/16 19:51:28;;;;;;;;;;;20.60;30.70;;;;;;8335096;28;19936;-47
2023/03/16 19:55:30;;;;;;;;;;;20.60;30.70;;;;;;8333988;28;19917;-46
2023/03/16 19:59:32;;;;;;;;;;;20.60;30.70;;;;;;8334322;28;19964;-46
2023/03/16 20:03:35;;;;;;;;;;;20.60;30.60;;;;;;8334139;28;20023;-47
2023/03/16 20:07:36;;;;;;;;;;;20.60;30.70;;;;;;8320152;28;20000;-45
2023/03/16 20:11:37;;;;;;;;;;;20.60;30.80;;;;;;8334316;28;19928;-45
2023/03/16 20:15:38;;;;;;;;;;;20.60;30.70;;;;;;8334018;28;19917;-45
2023/03/16 20:19:38;;;;;;;;;;;20.60;30.60;;;;;;8333349;28;19917;-46
2023/03/16 20:23:38;;;;;;;;;;;20.60;30.70;;;;;;8333559;28;19917;-46
2023/03/16 20:27:39;;;;;;;;;;;20.60;30.70;;;;;;8333421;28;19913;-46
2023/03/16 20:31:39;;;;;;;;;;;20.60;30.80;;;;;;8333009;28;19925;-45
2023/03/16 20:35:40;;;;;;;;;;;20.60;30.80;;;;;;8333188;28;19925;-45
2023/03/16 20:39:40;;;;;;;;;;;20.60;30.70;;;;;;8333262;28;19928;-45
2023/03/16 20:43:41;;;;;;;;;;;20.60;30.70;;;;;;8332557;28;19979;-45
2023/03/16 20:47:42;;;;;;;;;;;20.60;30.60;;;;;;8333400;28;20432;-46
2023/03/16 20:51:43;;;;;;;;;;;20.60;30.70;;;;;;8333026;28;19921;-45
2023/03/16 20:55:44;;;;;;;;;;;20.60;30.70;;;;;;8332387;28;19918;-46
2023/03/16 20:59:46;;;;;;;;;;;20.60;30.70;;;;;;8332576;28;19917;-46
2023/03/16 21:03:49;;;;;;;;;;;20.60;30.70;;;;;;8332291;28;19948;-46
2023/03/16 21:07:50;;;;;;;;;;;20.60;30.70;;;;;;8358720;28;19924;-45
2023/03/16 21:11:50;;;;;;;;;;;20.60;30.60;;;;;;8332448;28;20019;-45
2023/03/16 21:15:53;;;;;;;;;;;20.60;30.70;;;;;;8331908;28;20371;-45
2023/03/16 21:19:54;;;;;;;;;;;20.60;30.70;;;;;;8330949;28;19917;-43
2023/03/16 21:23:54;;;;;;;;;;;20.60;30.70;;;;;;8331968;28;19917;-45
2023/03/16 21:27:56;;;;;;;;;;;20.60;30.70;;;;;;8332222;28;19914;-45
2023/03/16 21:31:57;;;;;;;;;;;20.60;30.60;;;;;;8331240;28;19925;-46
2023/03/16 21:35:58;;;;;;;;;;;20.60;30.60;;;;;;8331486;28;19953;-45
2023/03/16 21:39:58;;;;;;;;;;;20.60;30.50;;;;;;8331468;28;19924;-44
2023/03/16 21:44:00;;;;;;;;;;;20.60;30.50;;;;;;8330859;28;20291;-45
2023/03/16 21:48:00;;;;;;;;;;;20.60;30.50;;;;;;8331603;28;20366;-46
2023/03/16 21:52:01;;;;;;;;;;;20.60;30.50;;;;;;8331051;28;19932;-45
2023/03/16 21:56:02;;;;;;;;;;;20.60;30.50;;;;;;8330336;28;19971;-45
2023/03/16 22:00:03;;;;;;;;;;;20.60;30.50;;;;;;8330801;28;19990;-45
2023/03/16 22:04:12;;;;;;;;;;;20.60;30.50;;;;;;8330737;28;20394;-45
2023/03/16 22:08:14;;;;;;;;;;;20.60;30.50;;;;;;8330234;28;19917;-45
2023/03/16 22:12:15;;;;;;;;;;;20.50;30.50;;;;;;8330642;28;20294;-44
2023/03/16 22:16:20;;;;;;;;;;;20.50;30.40;;;;;;8330492;28;19924;-45
2023/03/16 22:20:25;;;;;;;;;;;20.50;30.40;;;;;;8330183;28;19970;-44
2023/03/16 22:24:31;;;;;;;;;;;20.50;30.40;;;;;;8330341;28;19917;-45
2023/03/16 22:28:31;;;;;;;;;;;20.50;30.50;;;;;;8329850;28;20340;-45
2023/03/16 22:32:32;;;;;;;;;;;20.40;30.50;;;;;;8329580;28;19925;-44
2023/03/16 22:36:32;;;;;;;;;;;20.40;30.50;;;;;;8329938;28;20340;-44
2023/03/16 22:40:36;;;;;;;;;;;20.40;30.60;;;;;;8329438;28;19913;-42
2023/03/16 22:44:36;;;;;;;;;;;20.30;30.60;;;;;;8330160;28;19952;-42
2023/03/16 22:48:36;;;;;;;;;;;20.30;31.30;;;;;;8330333;28;19917;-43
2023/03/16 22:52:37;;;;;;;;;;;20.30;30.80;;;;;;8329506;28;19960;-45
2023/03/16 22:56:38;;;;;;;;;;;20.30;30.80;;;;;;8329582;28;19917;-44
2023/03/16 23:00:38;;;;;;;;;;;20.20;30.70;;;;;;8328897;28;19920;-43
2023/03/16 23:04:39;;;;;;;;;;;20.20;30.70;;;;;;8328028;28;19967;-44
2023/03/16 23:08:39;;;;;;;;;;;20.20;30.70;;;;;;8329448;28;20363;-43
2023/03/16 23:12:40;;;;;;;;;;;20.20;30.80;;;;;;8329506;28;20293;-44
2023/03/16 23:16:40;;;;;;;;;;;20.10;30.80;;;;;;8328823;28;19918;-43
2023/03/16 23:20:41;;;;;;;;;;;20.10;30.80;;;;;;8329197;28;20400;-44
2023/03/16 23:24:41;;;;;;;;;;;20.10;30.80;;;;;;8329164;28;19964;-44
2023/03/16 23:28:42;;;;;;;;;;;20.10;30.80;;;;;;8328972;28;19923;-43